National Weather Service Raw Text Product

Displaying AFOS PIL: TAFMCW Received: 2018-04-17 11:07 UTC


891 
FTUS43 KDMX 171107 AAB
TAFMCW
TAF AMD
KMCW 171107Z 1711/1806 29008KT P6SM SKC
     FM171300 35007KT P6SM SKC
     FM172000 06007KT P6SM SCT180
     FM180400 08009KT P6SM BKN060=